Terminal Aerodrome Forecast
Issued by NWS

Home | Current Version | Previous Version | Text Only | Print | Product List | Glossary Off
Versions: 1 2 3 4 5 6 7 8 9 10 11 12 13 14 15 16 17

779
FTUS43 KICT 220537 AAA
TAFHUT
TAF AMD
KHUT 220537Z 2206/2306 36010KT 6SM -SHRA OVC006
     FM221000 35010KT P6SM OVC035
     FM230300 02005KT P6SM BKN070=

USA.gov is the U.S. government's official web portal to all federal, state and local government web resources and services.